sensor_id;sensor_type;location;lat;lon;timestamp;pressure;altitude;pressure_sealevel;temperature;humidity
72548;BME280;60570;50.848;6.776;2023-03-13T00:00:41;99493.53;;;9.09;70.41
72548;BME280;60570;50.848;6.776;2023-03-13T00:01:45;99490.06;;;9.12;70.14
72548;BME280;60570;50.848;6.776;2023-03-13T00:02:46;99491.47;;;9.06;70.16
72548;BME280;60570;50.848;6.776;2023-03-13T00:03:46;99483.06;;;9.02;70.66
72548;BME280;60570;50.848;6.776;2023-03-13T00:04:46;99486.88;;;8.98;70.67
72548;BME280;60570;50.848;6.776;2023-03-13T00:05:47;99478.22;;;8.99;70.50
72548;BME280;60570;50.848;6.776;2023-03-13T00:06:47;99482.59;;;9.00;69.36
72548;BME280;60570;50.848;6.776;2023-03-13T00:07:48;99485.25;;;8.97;70.23
72548;BME280;60570;50.848;6.776;2023-03-13T00:08:48;99481.88;;;9.03;70.42
72548;BME280;60570;50.848;6.776;2023-03-13T00:09:49;99484.06;;;9.10;70.39
72548;BME280;60570;50.848;6.776;2023-03-13T00:10:49;99484.16;;;9.14;70.29
72548;BME280;60570;50.848;6.776;2023-03-13T00:11:49;99481.19;;;9.07;70.47
72548;BME280;60570;50.848;6.776;2023-03-13T00:12:50;99473.47;;;9.00;70.50
72548;BME280;60570;50.848;6.776;2023-03-13T00:13:55;99475.09;;;9.01;70.86
72548;BME280;60570;50.848;6.776;2023-03-13T00:14:56;99474.38;;;9.04;70.55
72548;BME280;60570;50.848;6.776;2023-03-13T00:16:07;99464.47;;;9.03;71.08
72548;BME280;60570;50.848;6.776;2023-03-13T00:17:07;99458.31;;;9.10;70.97
72548;BME280;60570;50.848;6.776;2023-03-13T00:18:09;99463.75;;;9.06;70.49
72548;BME280;60570;50.848;6.776;2023-03-13T00:19:09;99449.81;;;9.02;70.93
72548;BME280;60570;50.848;6.776;2023-03-13T00:20:10;99448.78;;;9.07;70.44
72548;BME280;60570;50.848;6.776;2023-03-13T00:21:11;99444.69;;;9.17;70.09
72548;BME280;60570;50.848;6.776;2023-03-13T00:22:11;99438.47;;;9.07;70.48
72548;BME280;60570;50.848;6.776;2023-03-13T00:23:12;99432.25;;;9.11;70.84
72548;BME280;60570;50.848;6.776;2023-03-13T00:24:12;99433.19;;;9.02;71.15
72548;BME280;60570;50.848;6.776;2023-03-13T00:25:13;99432.38;;;9.02;71.11
72548;BME280;60570;50.848;6.776;2023-03-13T00:26:16;99426.16;;;9.05;70.71
72548;BME280;60570;50.848;6.776;2023-03-13T00:27:17;99417.22;;;9.12;70.87
72548;BME280;60570;50.848;6.776;2023-03-13T00:28:17;99422.88;;;9.15;70.57
72548;BME280;60570;50.848;6.776;2023-03-13T00:29:17;99416.53;;;9.15;70.35
72548;BME280;60570;50.848;6.776;2023-03-13T00:30:18;99419.31;;;9.15;70.54
72548;BME280;60570;50.848;6.776;2023-03-13T00:31:27;99409.72;;;9.12;70.50
72548;BME280;60570;50.848;6.776;2023-03-13T00:32:28;99421.63;;;9.13;70.57
72548;BME280;60570;50.848;6.776;2023-03-13T00:33:31;99414.34;;;9.08;71.16
72548;BME280;60570;50.848;6.776;2023-03-13T00:34:31;99413.53;;;9.07;70.93
72548;BME280;60570;50.848;6.776;2023-03-13T00:35:32;99407.91;;;9.04;71.46
72548;BME280;60570;50.848;6.776;2023-03-13T00:36:34;99404.50;;;9.23;70.97
72548;BME280;60570;50.848;6.776;2023-03-13T00:37:34;99406.91;;;9.24;70.73
72548;BME280;60570;50.848;6.776;2023-03-13T00:38:35;99399.56;;;9.16;70.68
72548;BME280;60570;50.848;6.776;2023-03-13T00:39:36;99401.09;;;9.29;70.72
72548;BME280;60570;50.848;6.776;2023-03-13T00:40:36;99398.88;;;9.35;70.98
72548;BME280;60570;50.848;6.776;2023-03-13T00:41:37;99391.78;;;9.22;70.50
72548;BME280;60570;50.848;6.776;2023-03-13T00:42:38;99404.69;;;9.30;70.68
72548;BME280;60570;50.848;6.776;2023-03-13T00:43:39;99397.53;;;9.29;71.21
72548;BME280;60570;50.848;6.776;2023-03-13T00:44:40;99393.94;;;9.28;71.15
72548;BME280;60570;50.848;6.776;2023-03-13T00:45:41;99386.09;;;9.30;71.13
72548;BME280;60570;50.848;6.776;2023-03-13T00:46:41;99392.81;;;9.45;71.11
72548;BME280;60570;50.848;6.776;2023-03-13T00:47:42;99378.69;;;9.34;70.28
72548;BME280;60570;50.848;6.776;2023-03-13T00:48:42;99375.97;;;9.22;70.87
72548;BME280;60570;50.848;6.776;2023-03-13T00:49:43;99379.09;;;9.21;71.59
72548;BME280;60570;50.848;6.776;2023-03-13T00:50:44;99379.19;;;9.24;71.59
72548;BME280;60570;50.848;6.776;2023-03-13T00:51:44;99371.84;;;9.16;71.53
72548;BME280;60570;50.848;6.776;2023-03-13T00:52:45;99361.56;;;9.17;71.82
72548;BME280;60570;50.848;6.776;2023-03-13T00:53:45;99362.47;;;9.21;71.57
72548;BME280;60570;50.848;6.776;2023-03-13T00:54:46;99373.03;;;9.31;71.32
72548;BME280;60570;50.848;6.776;2023-03-13T00:56:54;99368.56;;;9.26;70.92
72548;BME280;60570;50.848;6.776;2023-03-13T00:57:54;99368.47;;;9.23;71.32
72548;BME280;60570;50.848;6.776;2023-03-13T00:58:55;99364.00;;;9.34;71.64
72548;BME280;60570;50.848;6.776;2023-03-13T00:59:55;99360.34;;;9.30;71.48
72548;BME280;60570;50.848;6.776;2023-03-13T01:00:56;99368.38;;;9.35;71.59
72548;BME280;60570;50.848;6.776;2023-03-13T01:01:56;99361.09;;;9.42;71.52
72548;BME280;60570;50.848;6.776;2023-03-13T01:02:57;99361.09;;;9.42;71.32
72548;BME280;60570;50.848;6.776;2023-03-13T01:04:00;99353.09;;;9.41;71.23
72548;BME280;60570;50.848;6.776;2023-03-13T01:05:01;99358.31;;;9.42;70.94
72548;BME280;60570;50.848;6.776;2023-03-13T01:06:03;99356.78;;;9.45;71.56
72548;BME280;60570;50.848;6.776;2023-03-13T01:07:04;99370.53;;;9.41;71.20
72548;BME280;60570;50.848;6.776;2023-03-13T01:08:04;99370.00;;;9.36;71.54
72548;BME280;60570;50.848;6.776;2023-03-13T01:09:06;99364.28;;;9.29;71.39
72548;BME280;60570;50.848;6.776;2023-03-13T01:10:07;99365.44;;;9.28;71.50
72548;BME280;60570;50.848;6.776;2023-03-13T01:11:23;99370.16;;;9.27;71.84
72548;BME280;60570;50.848;6.776;2023-03-13T01:12:23;99366.19;;;9.40;71.50
72548;BME280;60570;50.848;6.776;2023-03-13T01:13:24;99366.06;;;9.37;71.42
72548;BME280;60570;50.848;6.776;2023-03-13T01:14:24;99357.66;;;9.33;71.95
72548;BME280;60570;50.848;6.776;2023-03-13T01:15:25;99351.41;;;9.36;71.83
72548;BME280;60570;50.848;6.776;2023-03-13T01:16:28;99348.91;;;9.31;71.81
72548;BME280;60570;50.848;6.776;2023-03-13T01:17:28;99346.78;;;9.40;72.06
72548;BME280;60570;50.848;6.776;2023-03-13T01:18:30;99336.22;;;9.46;72.08
72548;BME280;60570;50.848;6.776;2023-03-13T01:19:30;99336.75;;;9.51;71.62
72548;BME280;60570;50.848;6.776;2023-03-13T01:20:31;99335.41;;;9.45;71.16
72548;BME280;60570;50.848;6.776;2023-03-13T01:21:31;99339.88;;;9.34;71.22
72548;BME280;60570;50.848;6.776;2023-03-13T01:22:32;99337.91;;;9.35;71.62
72548;BME280;60570;50.848;6.776;2023-03-13T01:23:32;99330.94;;;9.41;71.94
72548;BME280;60570;50.848;6.776;2023-03-13T01:24:33;99338.34;;;9.52;71.36
72548;BME280;60570;50.848;6.776;2023-03-13T01:25:37;99342.03;;;9.41;71.64
72548;BME280;60570;50.848;6.776;2023-03-13T01:26:37;99334.16;;;9.58;71.33
72548;BME280;60570;50.848;6.776;2023-03-13T01:27:38;99338.81;;;9.54;71.36
72548;BME280;60570;50.848;6.776;2023-03-13T01:28:39;99329.78;;;9.42;71.31
72548;BME280;60570;50.848;6.776;2023-03-13T01:29:39;99324.78;;;9.47;71.62
72548;BME280;60570;50.848;6.776;2023-03-13T01:30:39;99319.53;;;9.58;71.75
72548;BME280;60570;50.848;6.776;2023-03-13T01:31:40;99318.97;;;9.52;71.91
72548;BME280;60570;50.848;6.776;2023-03-13T01:32:40;99319.84;;;9.41;71.62
72548;BME280;60570;50.848;6.776;2023-03-13T01:33:41;99314.06;;;9.46;71.55
72548;BME280;60570;50.848;6.776;2023-03-13T01:34:41;99316.75;;;9.42;71.71
72548;BME280;60570;50.848;6.776;2023-03-13T01:35:42;99308.44;;;9.42;72.19
72548;BME280;60570;50.848;6.776;2023-03-13T01:36:42;99303.88;;;9.50;71.85
72548;BME280;60570;50.848;6.776;2023-03-13T01:37:43;99298.31;;;9.50;72.08
72548;BME280;60570;50.848;6.776;2023-03-13T01:38:47;99295.53;;;9.50;71.47
72548;BME280;60570;50.848;6.776;2023-03-13T01:39:47;99288.75;;;9.47;71.54
72548;BME280;60570;50.848;6.776;2023-03-13T01:40:48;99294.13;;;9.40;71.52
72548;BME280;60570;50.848;6.776;2023-03-13T01:41:48;99297.13;;;9.35;71.83
72548;BME280;60570;50.848;6.776;2023-03-13T01:42:57;99281.41;;;9.39;71.73
72548;BME280;60570;50.848;6.776;2023-03-13T01:43:58;99292.50;;;9.39;72.06
72548;BME280;60570;50.848;6.776;2023-03-13T01:44:59;99286.59;;;9.41;72.04
72548;BME280;60570;50.848;6.776;2023-03-13T01:47:18;99290.19;;;9.41;72.14
72548;BME280;60570;50.848;6.776;2023-03-13T01:49:30;99283.56;;;9.46;71.85
72548;BME280;60570;50.848;6.776;2023-03-13T01:50:32;99286.94;;;9.55;72.39
72548;BME280;60570;50.848;6.776;2023-03-13T01:52:36;99275.34;;;9.49;72.50
72548;BME280;60570;50.848;6.776;2023-03-13T01:53:39;99266.72;;;9.54;71.93
72548;BME280;60570;50.848;6.776;2023-03-13T01:54:49;99276.94;;;9.50;71.90
72548;BME280;60570;50.848;6.776;2023-03-13T01:55:52;99275.06;;;9.39;72.11
72548;BME280;60570;50.848;6.776;2023-03-13T01:57:00;99279.63;;;9.47;72.10
72548;BME280;60570;50.848;6.776;2023-03-13T01:58:01;99268.38;;;9.40;72.39
72548;BME280;60570;50.848;6.776;2023-03-13T01:59:03;99262.72;;;9.52;72.57
72548;BME280;60570;50.848;6.776;2023-03-13T02:00:13;99250.63;;;9.44;72.51
72548;BME280;60570;50.848;6.776;2023-03-13T02:01:16;99255.47;;;9.47;72.38
72548;BME280;60570;50.848;6.776;2023-03-13T02:02:17;99249.47;;;9.61;72.22
72548;BME280;60570;50.848;6.776;2023-03-13T02:03:19;99244.28;;;9.59;72.32
72548;BME280;60570;50.848;6.776;2023-03-13T02:04:21;99245.09;;;9.60;72.14
72548;BME280;60570;50.848;6.776;2023-03-13T02:05:24;99247.16;;;9.63;72.12
72548;BME280;60570;50.848;6.776;2023-03-13T02:06:29;99230.44;;;9.59;72.00
72548;BME280;60570;50.848;6.776;2023-03-13T02:07:43;99232.75;;;9.57;72.10
72548;BME280;60570;50.848;6.776;2023-03-13T02:08:50;99233.38;;;9.51;71.58
72548;BME280;60570;50.848;6.776;2023-03-13T02:09:53;99231.06;;;9.53;72.28
72548;BME280;60570;50.848;6.776;2023-03-13T02:11:03;99229.28;;;9.45;73.01
72548;BME280;60570;50.848;6.776;2023-03-13T02:12:12;99218.56;;;9.43;72.88
72548;BME280;60570;50.848;6.776;2023-03-13T02:13:15;99218.28;;;9.48;72.52
72548;BME280;60570;50.848;6.776;2023-03-13T02:14:18;99213.44;;;9.61;72.67
72548;BME280;60570;50.848;6.776;2023-03-13T02:15:21;99207.00;;;9.57;72.63
72548;BME280;60570;50.848;6.776;2023-03-13T02:16:22;99201.53;;;9.60;72.51
72548;BME280;60570;50.848;6.776;2023-03-13T02:17:24;99199.88;;;9.56;72.67
72548;BME280;60570;50.848;6.776;2023-03-13T02:18:24;99200.72;;;9.60;73.02
72548;BME280;60570;50.848;6.776;2023-03-13T02:20:37;99198.88;;;9.48;72.35
72548;BME280;60570;50.848;6.776;2023-03-13T02:21:42;99197.44;;;9.54;73.07
72548;BME280;60570;50.848;6.776;2023-03-13T02:23:00;99192.78;;;9.58;73.00
72548;BME280;60570;50.848;6.776;2023-03-13T02:24:30;99194.66;;;9.54;73.19
72548;BME280;60570;50.848;6.776;2023-03-13T02:25:52;99179.28;;;9.57;73.43
72548;BME280;60570;50.848;6.776;2023-03-13T02:26:53;99193.59;;;9.59;72.67
72548;BME280;60570;50.848;6.776;2023-03-13T02:27:57;99190.22;;;9.50;73.42
72548;BME280;60570;50.848;6.776;2023-03-13T02:28:58;99181.91;;;9.50;73.52
72548;BME280;60570;50.848;6.776;2023-03-13T02:29:58;99187.97;;;9.55;73.32
72548;BME280;60570;50.848;6.776;2023-03-13T02:31:00;99184.00;;;9.56;73.68
72548;BME280;60570;50.848;6.776;2023-03-13T02:32:00;99187.66;;;9.60;73.39
72548;BME280;60570;50.848;6.776;2023-03-13T02:33:02;99184.28;;;9.67;73.25
72548;BME280;60570;50.848;6.776;2023-03-13T02:34:03;99189.63;;;9.60;73.12
72548;BME280;60570;50.848;6.776;2023-03-13T02:35:09;99188.94;;;9.63;72.97
72548;BME280;60570;50.848;6.776;2023-03-13T02:36:12;99186.22;;;9.66;73.35
72548;BME280;60570;50.848;6.776;2023-03-13T02:37:14;99192.59;;;9.67;72.91
72548;BME280;60570;50.848;6.776;2023-03-13T02:38:19;99185.09;;;9.67;72.97
72548;BME280;60570;50.848;6.776;2023-03-13T02:39:22;99183.72;;;9.77;73.02
72548;BME280;60570;50.848;6.776;2023-03-13T02:40:30;99173.63;;;9.69;72.82
72548;BME280;60570;50.848;6.776;2023-03-13T02:41:33;99176.31;;;9.65;73.05
72548;BME280;60570;50.848;6.776;2023-03-13T02:42:37;99175.66;;;9.72;73.14
72548;BME280;60570;50.848;6.776;2023-03-13T02:43:38;99176.09;;;9.74;73.42
72548;BME280;60570;50.848;6.776;2023-03-13T02:44:39;99175.94;;;9.67;73.23
72548;BME280;60570;50.848;6.776;2023-03-13T02:45:40;99187.31;;;9.62;72.99
72548;BME280;60570;50.848;6.776;2023-03-13T02:46:48;99176.66;;;9.64;73.18
72548;BME280;60570;50.848;6.776;2023-03-13T02:47:49;99176.94;;;9.59;72.41
72548;BME280;60570;50.848;6.776;2023-03-13T02:48:52;99183.09;;;9.68;73.35
72548;BME280;60570;50.848;6.776;2023-03-13T02:49:53;99186.97;;;9.63;73.31
72548;BME280;60570;50.848;6.776;2023-03-13T02:50:53;99175.88;;;9.63;73.05
72548;BME280;60570;50.848;6.776;2023-03-13T02:51:56;99180.06;;;9.73;73.22
72548;BME280;60570;50.848;6.776;2023-03-13T02:53:00;99177.34;;;9.76;73.16
72548;BME280;60570;50.848;6.776;2023-03-13T02:54:06;99176.63;;;9.79;72.81
72548;BME280;60570;50.848;6.776;2023-03-13T02:55:14;99175.84;;;9.79;72.71
72548;BME280;60570;50.848;6.776;2023-03-13T02:56:19;99174.56;;;9.76;72.99
72548;BME280;60570;50.848;6.776;2023-03-13T02:57:21;99170.72;;;9.81;72.85
72548;BME280;60570;50.848;6.776;2023-03-13T02:58:23;99166.00;;;9.66;73.20
72548;BME280;60570;50.848;6.776;2023-03-13T02:59:24;99167.63;;;9.67;73.21
72548;BME280;60570;50.848;6.776;2023-03-13T03:00:25;99165.88;;;9.78;73.18
72548;BME280;60570;50.848;6.776;2023-03-13T03:01:25;99159.09;;;9.75;72.83
72548;BME280;60570;50.848;6.776;2023-03-13T03:02:26;99152.84;;;9.78;72.43
72548;BME280;60570;50.848;6.776;2023-03-13T03:03:26;99159.19;;;9.79;72.88
72548;BME280;60570;50.848;6.776;2023-03-13T03:04:27;99147.56;;;9.73;72.89
72548;BME280;60570;50.848;6.776;2023-03-13T03:05:27;99146.16;;;9.64;72.89
72548;BME280;60570;50.848;6.776;2023-03-13T03:06:28;99140.91;;;9.59;73.02
72548;BME280;60570;50.848;6.776;2023-03-13T03:07:28;99145.81;;;9.65;73.27
72548;BME280;60570;50.848;6.776;2023-03-13T03:08:29;99137.94;;;9.67;73.54
72548;BME280;60570;50.848;6.776;2023-03-13T03:09:29;99135.38;;;9.78;73.08
72548;BME280;60570;50.848;6.776;2023-03-13T03:10:30;99142.00;;;9.73;73.28
72548;BME280;60570;50.848;6.776;2023-03-13T03:11:30;99127.06;;;9.59;72.71
72548;BME280;60570;50.848;6.776;2023-03-13T03:12:31;99129.63;;;9.67;73.58
72548;BME280;60570;50.848;6.776;2023-03-13T03:13:31;99133.69;;;9.73;73.06
72548;BME280;60570;50.848;6.776;2023-03-13T03:14:32;99125.03;;;9.75;73.09
72548;BME280;60570;50.848;6.776;2023-03-13T03:15:33;99124.09;;;9.67;73.42
72548;BME280;60570;50.848;6.776;2023-03-13T03:16:33;99124.59;;;9.73;73.25
72548;BME280;60570;50.848;6.776;2023-03-13T03:17:34;99130.34;;;9.64;73.58
72548;BME280;60570;50.848;6.776;2023-03-13T03:18:35;99123.84;;;9.76;72.99
72548;BME280;60570;50.848;6.776;2023-03-13T03:19:35;99126.25;;;9.77;73.40
72548;BME280;60570;50.848;6.776;2023-03-13T03:20:36;99118.69;;;9.74;73.26
72548;BME280;60570;50.848;6.776;2023-03-13T03:21:36;99120.72;;;9.77;73.60
72548;BME280;60570;50.848;6.776;2023-03-13T03:22:38;99116.53;;;9.68;73.53
72548;BME280;60570;50.848;6.776;2023-03-13T03:23:40;99121.50;;;9.59;73.27
72548;BME280;60570;50.848;6.776;2023-03-13T03:24:40;99125.09;;;9.59;73.97
72548;BME280;60570;50.848;6.776;2023-03-13T03:25:40;99127.38;;;9.73;73.53
72548;BME280;60570;50.848;6.776;2023-03-13T03:26:41;99123.41;;;9.74;74.05
72548;BME280;60570;50.848;6.776;2023-03-13T03:27:41;99122.25;;;9.75;73.58
72548;BME280;60570;50.848;6.776;2023-03-13T03:28:42;99124.28;;;9.78;73.73
72548;BME280;60570;50.848;6.776;2023-03-13T03:29:42;99127.81;;;9.75;73.56
72548;BME280;60570;50.848;6.776;2023-03-13T03:30:43;99129.13;;;9.81;73.86
72548;BME280;60570;50.848;6.776;2023-03-13T03:31:43;99132.91;;;9.73;73.80
72548;BME280;60570;50.848;6.776;2023-03-13T03:32:44;99136.19;;;9.78;74.12
72548;BME280;60570;50.848;6.776;2023-03-13T03:33:44;99130.41;;;9.68;73.46
72548;BME280;60570;50.848;6.776;2023-03-13T03:34:45;99130.72;;;9.63;73.51
72548;BME280;60570;50.848;6.776;2023-03-13T03:35:45;99123.84;;;9.76;73.72
72548;BME280;60570;50.848;6.776;2023-03-13T03:36:46;99132.16;;;9.76;73.89
72548;BME280;60570;50.848;6.776;2023-03-13T03:37:46;99129.19;;;9.65;73.50
72548;BME280;60570;50.848;6.776;2023-03-13T03:38:47;99123.53;;;9.62;73.93
72548;BME280;60570;50.848;6.776;2023-03-13T03:39:47;99131.97;;;9.65;74.03
72548;BME280;60570;50.848;6.776;2023-03-13T03:40:48;99132.03;;;9.69;74.34
72548;BME280;60570;50.848;6.776;2023-03-13T03:41:48;99128.44;;;9.68;74.05
72548;BME280;60570;50.848;6.776;2023-03-13T03:42:49;99140.56;;;9.79;74.19
72548;BME280;60570;50.848;6.776;2023-03-13T03:43:49;99121.88;;;9.76;74.09
72548;BME280;60570;50.848;6.776;2023-03-13T03:44:49;99127.50;;;9.80;73.83
72548;BME280;60570;50.848;6.776;2023-03-13T03:45:50;99119.50;;;9.75;74.26
72548;BME280;60570;50.848;6.776;2023-03-13T03:46:50;99118.44;;;9.64;74.09
72548;BME280;60570;50.848;6.776;2023-03-13T03:47:51;99108.91;;;9.61;74.29
72548;BME280;60570;50.848;6.776;2023-03-13T03:48:51;99115.59;;;9.79;74.38
72548;BME280;60570;50.848;6.776;2023-03-13T03:49:52;99109.41;;;9.67;73.95
72548;BME280;60570;50.848;6.776;2023-03-13T03:50:52;99104.50;;;9.60;73.88
72548;BME280;60570;50.848;6.776;2023-03-13T03:51:52;99112.09;;;9.63;74.61
72548;BME280;60570;50.848;6.776;2023-03-13T03:52:53;99114.00;;;9.59;74.57
72548;BME280;60570;50.848;6.776;2023-03-13T03:53:53;99113.56;;;9.57;74.82
72548;BME280;60570;50.848;6.776;2023-03-13T03:54:54;99110.66;;;9.69;74.79
72548;BME280;60570;50.848;6.776;2023-03-13T03:55:54;99115.59;;;9.60;74.25
72548;BME280;60570;50.848;6.776;2023-03-13T03:56:55;99113.13;;;9.55;74.56
72548;BME280;60570;50.848;6.776;2023-03-13T03:57:55;99106.13;;;9.61;74.87
72548;BME280;60570;50.848;6.776;2023-03-13T03:58:55;99101.53;;;9.69;75.29
72548;BME280;60570;50.848;6.776;2023-03-13T03:59:56;99111.44;;;9.70;74.61
72548;BME280;60570;50.848;6.776;2023-03-13T04:00:57;99100.06;;;9.75;74.58
72548;BME280;60570;50.848;6.776;2023-03-13T04:01:57;99099.25;;;9.74;73.65
72548;BME280;60570;50.848;6.776;2023-03-13T04:02:57;99098.91;;;9.76;74.30
72548;BME280;60570;50.848;6.776;2023-03-13T04:03:58;99093.66;;;9.71;74.53
72548;BME280;60570;50.848;6.776;2023-03-13T04:04:58;99094.28;;;9.83;74.74
72548;BME280;60570;50.848;6.776;2023-03-13T04:05:59;99095.69;;;9.74;74.47
72548;BME280;60570;50.848;6.776;2023-03-13T04:06:59;99096.28;;;9.83;74.81
72548;BME280;60570;50.848;6.776;2023-03-13T04:08:00;99105.81;;;9.85;74.63
72548;BME280;60570;50.848;6.776;2023-03-13T04:09:00;99099.72;;;9.76;73.68
72548;BME280;60570;50.848;6.776;2023-03-13T04:10:02;99110.34;;;9.74;74.13
72548;BME280;60570;50.848;6.776;2023-03-13T04:11:02;99109.53;;;9.74;74.06
72548;BME280;60570;50.848;6.776;2023-03-13T04:12:03;99114.59;;;9.87;74.62
72548;BME280;60570;50.848;6.776;2023-03-13T04:13:03;99112.38;;;9.77;74.22
72548;BME280;60570;50.848;6.776;2023-03-13T04:14:04;99111.38;;;9.66;74.29
72548;BME280;60570;50.848;6.776;2023-03-13T04:15:05;99110.03;;;9.60;74.75
72548;BME280;60570;50.848;6.776;2023-03-13T04:16:09;99101.72;;;9.79;74.88
72548;BME280;60570;50.848;6.776;2023-03-13T04:17:10;99095.41;;;9.79;74.14
72548;BME280;60570;50.848;6.776;2023-03-13T04:18:10;99093.78;;;9.78;74.26
72548;BME280;60570;50.848;6.776;2023-03-13T04:19:10;99084.75;;;9.81;74.73
72548;BME280;60570;50.848;6.776;2023-03-13T04:20:11;99082.94;;;9.69;74.23
72548;BME280;60570;50.848;6.776;2023-03-13T04:21:13;99083.78;;;9.73;75.07
72548;BME280;60570;50.848;6.776;2023-03-13T04:22:13;99079.47;;;9.76;74.83
72548;BME280;60570;50.848;6.776;2023-03-13T04:23:14;99083.06;;;9.76;75.08
72548;BME280;60570;50.848;6.776;2023-03-13T04:24:14;99083.66;;;9.66;74.63
72548;BME280;60570;50.848;6.776;2023-03-13T04:25:15;99079.56;;;9.60;74.88
72548;BME280;60570;50.848;6.776;2023-03-13T04:26:15;99080.44;;;9.64;75.23
72548;BME280;60570;50.848;6.776;2023-03-13T04:27:16;99083.19;;;9.64;74.47
72548;BME280;60570;50.848;6.776;2023-03-13T04:28:16;99086.22;;;9.75;74.75
72548;BME280;60570;50.848;6.776;2023-03-13T04:29:17;99076.56;;;9.88;75.41
72548;BME280;60570;50.848;6.776;2023-03-13T04:30:17;99078.22;;;9.73;74.83
72548;BME280;60570;50.848;6.776;2023-03-13T04:31:17;99085.47;;;9.78;74.29
72548;BME280;60570;50.848;6.776;2023-03-13T04:32:18;99096.88;;;9.73;74.76
72548;BME280;60570;50.848;6.776;2023-03-13T04:33:18;99097.44;;;9.82;74.68
72548;BME280;60570;50.848;6.776;2023-03-13T04:34:19;99091.31;;;9.73;74.75
72548;BME280;60570;50.848;6.776;2023-03-13T04:35:19;99095.03;;;9.80;75.06
72548;BME280;60570;50.848;6.776;2023-03-13T04:36:20;99091.69;;;9.71;74.58
72548;BME280;60570;50.848;6.776;2023-03-13T04:37:20;99086.66;;;9.77;75.35
72548;BME280;60570;50.848;6.776;2023-03-13T04:38:21;99089.31;;;9.73;75.29
72548;BME280;60570;50.848;6.776;2023-03-13T04:39:21;99096.63;;;9.81;75.47
72548;BME280;60570;50.848;6.776;2023-03-13T04:40:24;99087.53;;;9.81;75.01
72548;BME280;60570;50.848;6.776;2023-03-13T04:41:25;99089.31;;;9.73;74.90
72548;BME280;60570;50.848;6.776;2023-03-13T04:42:25;99090.88;;;9.71;74.40
72548;BME280;60570;50.848;6.776;2023-03-13T04:43:25;99080.44;;;9.64;75.47
72548;BME280;60570;50.848;6.776;2023-03-13T04:44:26;99088.09;;;9.71;75.19
72548;BME280;60570;50.848;6.776;2023-03-13T04:45:26;99083.38;;;9.71;75.82
72548;BME280;60570;50.848;6.776;2023-03-13T04:46:27;99081.31;;;9.68;74.85
72548;BME280;60570;50.848;6.776;2023-03-13T04:47:27;99081.81;;;9.74;75.47
72548;BME280;60570;50.848;6.776;2023-03-13T04:48:28;99074.19;;;9.67;74.61
72548;BME280;60570;50.848;6.776;2023-03-13T04:49:28;99070.22;;;9.68;74.55
72548;BME280;60570;50.848;6.776;2023-03-13T04:50:29;99068.19;;;9.84;75.38
72548;BME280;60570;50.848;6.776;2023-03-13T04:51:29;99069.84;;;9.89;75.49
72548;BME280;60570;50.848;6.776;2023-03-13T04:52:30;99067.25;;;9.77;75.05
72548;BME280;60570;50.848;6.776;2023-03-13T04:53:30;99071.03;;;9.88;74.16
72548;BME280;60570;50.848;6.776;2023-03-13T04:54:30;99057.47;;;9.83;75.05
72548;BME280;60570;50.848;6.776;2023-03-13T04:55:31;99058.81;;;9.73;74.85
72548;BME280;60570;50.848;6.776;2023-03-13T04:56:31;99049.66;;;9.69;75.67
72548;BME280;60570;50.848;6.776;2023-03-13T04:57:32;99048.41;;;9.67;75.43
72548;BME280;60570;50.848;6.776;2023-03-13T04:58:32;99038.63;;;9.73;75.07
72548;BME280;60570;50.848;6.776;2023-03-13T04:59:33;99044.09;;;9.88;75.57
72548;BME280;60570;50.848;6.776;2023-03-13T05:00:33;99046.66;;;9.78;75.32
72548;BME280;60570;50.848;6.776;2023-03-13T05:01:34;99039.84;;;9.75;75.10
72548;BME280;60570;50.848;6.776;2023-03-13T05:02:34;99048.97;;;9.76;74.65
72548;BME280;60570;50.848;6.776;2023-03-13T05:03:35;99046.06;;;9.88;75.75
72548;BME280;60570;50.848;6.776;2023-03-13T05:04:35;99047.47;;;9.78;74.58
72548;BME280;60570;50.848;6.776;2023-03-13T05:05:36;99042.19;;;9.73;75.34
72548;BME280;60570;50.848;6.776;2023-03-13T05:06:36;99043.44;;;9.76;74.76
72548;BME280;60570;50.848;6.776;2023-03-13T05:07:37;99051.53;;;9.84;75.15
72548;BME280;60570;50.848;6.776;2023-03-13T05:08:37;99049.78;;;9.76;74.96
72548;BME280;60570;50.848;6.776;2023-03-13T05:09:37;99045.78;;;9.74;75.33
72548;BME280;60570;50.848;6.776;2023-03-13T05:10:38;99046.72;;;9.81;75.84
72548;BME280;60570;50.848;6.776;2023-03-13T05:11:38;99046.59;;;9.74;75.35
72548;BME280;60570;50.848;6.776;2023-03-13T05:12:42;99047.91;;;9.80;75.60
72548;BME280;60570;50.848;6.776;2023-03-13T05:13:42;99051.03;;;9.79;75.49
72548;BME280;60570;50.848;6.776;2023-03-13T05:14:43;99041.91;;;9.78;75.28
72548;BME280;60570;50.848;6.776;2023-03-13T05:15:43;99052.50;;;9.73;75.91
72548;BME280;60570;50.848;6.776;2023-03-13T05:16:43;99041.16;;;9.81;75.39
72548;BME280;60570;50.848;6.776;2023-03-13T05:17:44;99049.13;;;9.83;75.39
72548;BME280;60570;50.848;6.776;2023-03-13T05:18:44;99037.88;;;9.76;75.22
72548;BME280;60570;50.848;6.776;2023-03-13T05:19:45;99039.56;;;9.80;74.86
72548;BME280;60570;50.848;6.776;2023-03-13T05:20:45;99041.53;;;9.80;75.05
72548;BME280;60570;50.848;6.776;2023-03-13T05:21:45;99041.59;;;9.83;75.38
72548;BME280;60570;50.848;6.776;2023-03-13T05:22:46;99037.31;;;9.86;75.44
72548;BME280;60570;50.848;6.776;2023-03-13T05:23:46;99036.13;;;9.87;75.46
72548;BME280;60570;50.848;6.776;2023-03-13T05:24:47;99034.47;;;9.82;75.41
72548;BME280;60570;50.848;6.776;2023-03-13T05:25:47;99034.84;;;9.81;75.25
72548;BME280;60570;50.848;6.776;2023-03-13T05:26:47;99029.72;;;9.83;75.26
72548;BME280;60570;50.848;6.776;2023-03-13T05:27:48;99037.00;;;9.91;75.21
72548;BME280;60570;50.848;6.776;2023-03-13T05:28:48;99033.56;;;9.98;75.46
72548;BME280;60570;50.848;6.776;2023-03-13T05:29:49;99030.28;;;9.92;74.56
72548;BME280;60570;50.848;6.776;2023-03-13T05:30:49;99035.41;;;9.90;75.90
72548;BME280;60570;50.848;6.776;2023-03-13T05:31:50;99023.94;;;9.91;75.36
72548;BME280;60570;50.848;6.776;2023-03-13T05:32:50;99026.22;;;9.86;75.15
72548;BME280;60570;50.848;6.776;2023-03-13T05:33:50;99029.72;;;9.83;75.98
72548;BME280;60570;50.848;6.776;2023-03-13T05:34:51;99025.72;;;9.80;74.94
72548;BME280;60570;50.848;6.776;2023-03-13T05:35:51;99033.59;;;9.78;75.03